Time;durP1;ratioP1;P1;durP2;ratioP2;P2;SDS_P1;SDS_P2;PMS_P1;PMS_P2;Temp;Humidity;BMP_temperature;BMP_pressure;BME280_temperature;BME280_humidity;BME280_pressure;Samples;Min_cycle;Max_cycle;Signal;HPM_P1;HPM_P2
2021/12/14 00:01:41;;;;;;;1.60;1.50;;;;;;;;;;5025929;28;20201;-68
2021/12/14 00:04:32;;;;;;;1.27;1.17;;;;;;;;;;5025738;28;20279;-68
2021/12/14 00:07:22;;;;;;;1.60;1.50;;;;;;;;;;5027651;28;20213;-69
2021/12/14 00:10:27;;;;;;;2.03;1.70;;;;;;;;;;5027796;28;20578;-69
2021/12/14 00:13:23;;;;;;;1.70;1.40;;;;;;;;;;5027224;28;20202;-69
2021/12/14 00:16:14;;;;;;;1.60;1.50;;;;;;;;;;5034344;28;20212;-68
2021/12/14 00:19:02;;;;;;;1.60;1.50;;;;;;;;;;5034929;28;20705;-68
2021/12/14 00:21:52;;;;;;;1.77;1.67;;;;;;;;;;5035170;28;20701;-68
2021/12/14 00:24:40;;;;;;;1.40;1.30;;;;;;;;;;5013543;28;20221;-69
2021/12/14 00:27:28;;;;;;;2.03;1.47;;;;;;;;;;5025917;28;20304;-69
2021/12/14 00:30:15;;;;;;;1.77;1.50;;;;;;;;;;5027931;28;20290;-68
2021/12/14 00:33:03;;;;;;;1.77;1.60;;;;;;;;;;5014111;28;20264;-68
2021/12/14 00:35:50;;;;;;;2.10;1.60;;;;;;;;;;5028035;28;20248;-69
2021/12/14 00:38:38;;;;;;;1.27;1.17;;;;;;;;;;5028643;28;20333;-68
2021/12/14 00:41:31;;;;;;;1.17;1.17;;;;;;;;;;5034164;28;20569;-69
2021/12/14 00:44:20;;;;;;;1.27;1.17;;;;;;;;;;5027574;28;20911;-68
2021/12/14 00:47:08;;;;;;;1.50;1.20;;;;;;;;;;5027456;28;20216;-69
2021/12/14 00:49:55;;;;;;;1.40;1.30;;;;;;;;;;5021909;28;20245;-69
2021/12/14 00:52:43;;;;;;;1.20;1.10;;;;;;;;;;5026491;28;20283;-68
2021/12/14 00:55:35;;;;;;;1.13;1.10;;;;;;;;;;5028226;28;20203;-68
2021/12/14 00:58:25;;;;;;;1.30;1.20;;;;;;;;;;5016477;28;20260;-69
2021/12/14 01:01:16;;;;;;;1.10;1.10;;;;;;;;;;5023351;28;20672;-69
2021/12/14 01:04:08;;;;;;;1.10;1.10;;;;;;;;;;5026111;28;20221;-69
2021/12/14 01:06:56;;;;;;;1.30;1.20;;;;;;;;;;5027594;28;20245;-68
2021/12/14 01:09:45;;;;;;;0.80;0.80;;;;;;;;;;5025052;28;20297;-69
2021/12/14 01:12:40;;;;;;;1.23;1.13;;;;;;;;;;5027138;28;20246;-69
2021/12/14 01:15:49;;;;;;;1.47;1.30;;;;;;;;;;5026936;28;20221;-68
2021/12/14 01:18:47;;;;;;;1.30;1.20;;;;;;;;;;5029189;28;20726;-69
2021/12/14 01:21:55;;;;;;;1.50;1.30;;;;;;;;;;5030489;28;20228;-69
2021/12/14 01:27:58;;;;;;;1.23;1.13;;;;;;;;;;5019501;28;20228;-69
2021/12/14 01:30:58;;;;;;;1.43;1.33;;;;;;;;;;5028217;28;20216;-69
2021/12/14 01:33:49;;;;;;;1.30;1.20;;;;;;;;;;5027645;28;20205;-69
2021/12/14 01:36:42;;;;;;;1.10;1.03;;;;;;;;;;5027229;28;20208;-69
2021/12/14 01:39:47;;;;;;;1.00;1.00;;;;;;;;;;5027468;28;20669;-69
2021/12/14 01:42:39;;;;;;;1.10;1.10;;;;;;;;;;5031602;28;20236;-68
2021/12/14 01:45:27;;;;;;;1.20;1.10;;;;;;;;;;5020894;28;20226;-69
2021/12/14 01:48:16;;;;;;;1.00;1.00;;;;;;;;;;5025870;28;20217;-69
2021/12/14 01:51:07;;;;;;;0.90;0.90;;;;;;;;;;5030972;28;20206;-69
2021/12/14 01:53:55;;;;;;;1.07;1.03;;;;;;;;;;5029270;28;20217;-69
2021/12/14 01:56:42;;;;;;;1.00;1.00;;;;;;;;;;5030834;28;20213;-68
2021/12/14 01:59:35;;;;;;;1.17;1.10;;;;;;;;;;5032227;28;20212;-69
2021/12/14 02:02:30;;;;;;;1.17;0.90;;;;;;;;;;5029480;28;20399;-69
2021/12/14 02:05:22;;;;;;;1.30;1.10;;;;;;;;;;5030773;28;20232;-69
2021/12/14 02:08:16;;;;;;;0.90;0.90;;;;;;;;;;5015483;28;20224;-69
2021/12/14 02:11:06;;;;;;;0.67;0.67;;;;;;;;;;5031718;28;20225;-69
2021/12/14 02:13:55;;;;;;;1.10;1.10;;;;;;;;;;5029314;28;20776;-69
2021/12/14 02:16:43;;;;;;;1.00;1.00;;;;;;;;;;5031991;28;21049;-68
2021/12/14 02:19:31;;;;;;;1.23;1.13;;;;;;;;;;5030037;28;20268;-69
2021/12/14 02:22:20;;;;;;;0.87;0.80;;;;;;;;;;5043994;28;20290;-69
2021/12/14 02:25:08;;;;;;;0.87;0.87;;;;;;;;;;5052114;28;20208;-69
2021/12/14 02:28:00;;;;;;;0.80;0.80;;;;;;;;;;5044845;28;20205;-69
2021/12/14 02:30:50;;;;;;;0.90;0.90;;;;;;;;;;5050100;28;20216;-69
2021/12/14 02:33:39;;;;;;;0.70;0.70;;;;;;;;;;5051684;28;20284;-69
2021/12/14 02:36:28;;;;;;;0.60;0.60;;;;;;;;;;5050270;28;20204;-69
2021/12/14 02:39:35;;;;;;;0.70;0.70;;;;;;;;;;5050559;28;20291;-69
2021/12/14 02:42:26;;;;;;;0.70;0.70;;;;;;;;;;5046580;28;20226;-69
2021/12/14 02:45:14;;;;;;;0.50;0.50;;;;;;;;;;5057267;28;20593;-69
2021/12/14 02:48:07;;;;;;;0.60;0.60;;;;;;;;;;5043790;28;20240;-68
2021/12/14 02:50:54;;;;;;;0.67;0.67;;;;;;;;;;5050506;28;20221;-69
2021/12/14 02:53:42;;;;;;;0.70;0.70;;;;;;;;;;5053929;28;20333;-69
2021/12/14 02:56:33;;;;;;;0.80;0.80;;;;;;;;;;5058881;28;20734;-69
2021/12/14 02:59:23;;;;;;;0.67;0.67;;;;;;;;;;5068323;28;20279;-69
2021/12/14 03:02:13;;;;;;;0.90;0.90;;;;;;;;;;5046161;28;20216;-69
2021/12/14 03:05:02;;;;;;;0.90;0.90;;;;;;;;;;5047022;28;20315;-69
2021/12/14 03:07:53;;;;;;;0.87;0.87;;;;;;;;;;5064910;28;20663;-69
2021/12/14 03:10:54;;;;;;;0.67;0.67;;;;;;;;;;5050372;28;20222;-69
2021/12/14 03:13:45;;;;;;;0.60;0.60;;;;;;;;;;5051693;28;20595;-69
2021/12/14 03:16:34;;;;;;;0.73;0.73;;;;;;;;;;5050897;28;20207;-69
2021/12/14 03:19:21;;;;;;;0.90;0.77;;;;;;;;;;5044786;28;20356;-69
2021/12/14 03:22:23;;;;;;;0.60;0.60;;;;;;;;;;5039731;28;20314;-69
2021/12/14 03:25:13;;;;;;;0.70;0.70;;;;;;;;;;5066979;28;20285;-69
2021/12/14 03:28:00;;;;;;;0.50;0.50;;;;;;;;;;5049182;28;20238;-69
2021/12/14 03:31:01;;;;;;;0.67;0.67;;;;;;;;;;5048168;28;20214;-69
2021/12/14 03:33:54;;;;;;;0.60;0.60;;;;;;;;;;5051947;28;20293;-69
2021/12/14 03:36:45;;;;;;;0.60;0.60;;;;;;;;;;5049638;28;20210;-68
2021/12/14 03:39:35;;;;;;;0.50;0.50;;;;;;;;;;5039911;28;20262;-68
2021/12/14 03:42:25;;;;;;;0.60;0.60;;;;;;;;;;5059448;28;20286;-69
2021/12/14 03:45:16;;;;;;;0.60;0.60;;;;;;;;;;5043359;28;20232;-69
2021/12/14 03:48:06;;;;;;;0.40;0.40;;;;;;;;;;5049033;28;20356;-69
2021/12/14 03:50:54;;;;;;;0.60;0.60;;;;;;;;;;5050177;28;20212;-69
2021/12/14 03:53:41;;;;;;;0.50;0.50;;;;;;;;;;5047277;28;20216;-69
2021/12/14 03:56:28;;;;;;;0.50;0.50;;;;;;;;;;5048098;28;20291;-68
2021/12/14 03:59:16;;;;;;;0.50;0.50;;;;;;;;;;5036729;28;20702;-69
2021/12/14 04:02:06;;;;;;;0.40;0.40;;;;;;;;;;5044610;28;20219;-69
2021/12/14 04:05:01;;;;;;;0.53;0.53;;;;;;;;;;5049775;28;20233;-68
2021/12/14 04:07:49;;;;;;;0.50;0.50;;;;;;;;;;5060604;28;20201;-69
2021/12/14 04:10:38;;;;;;;0.40;0.40;;;;;;;;;;5049300;28;20290;-69
2021/12/14 04:13:30;;;;;;;0.40;0.40;;;;;;;;;;5041808;28;20234;-69
2021/12/14 04:16:19;;;;;;;0.50;0.50;;;;;;;;;;5037176;28;20307;-69
2021/12/14 04:19:08;;;;;;;0.47;0.47;;;;;;;;;;5040877;28;20606;-69
2021/12/14 04:21:59;;;;;;;0.60;0.60;;;;;;;;;;5037057;28;20320;-69
2021/12/14 04:24:49;;;;;;;0.40;0.40;;;;;;;;;;5047763;28;20317;-69
2021/12/14 04:27:36;;;;;;;0.47;0.47;;;;;;;;;;5047846;28;20227;-69
2021/12/14 04:30:26;;;;;;;0.50;0.50;;;;;;;;;;5043679;28;20705;-68
2021/12/14 04:33:17;;;;;;;0.50;0.50;;;;;;;;;;5049274;28;20683;-69
2021/12/14 04:36:06;;;;;;;0.50;0.50;;;;;;;;;;5043272;28;20689;-68
2021/12/14 04:39:00;;;;;;;0.50;0.50;;;;;;;;;;5048164;28;20208;-69
2021/12/14 04:54:17;;;;;;;0.50;0.50;;;;;;;;;;5049352;28;20205;-69
2021/12/14 04:57:05;;;;;;;0.60;0.60;;;;;;;;;;5047359;28;20212;-69
2021/12/14 04:59:54;;;;;;;0.40;0.40;;;;;;;;;;5056801;28;20706;-68
2021/12/14 05:02:42;;;;;;;0.60;0.60;;;;;;;;;;5044099;28;20296;-69
2021/12/14 05:05:33;;;;;;;0.57;0.57;;;;;;;;;;5048374;28;20272;-69
2021/12/14 05:11:26;;;;;;;0.60;0.57;;;;;;;;;;5051895;28;20274;-69
2021/12/14 05:14:14;;;;;;;0.60;0.60;;;;;;;;;;5047947;28;20577;-69
2021/12/14 05:17:04;;;;;;;0.30;0.30;;;;;;;;;;5052028;28;20206;-68
2021/12/14 05:19:54;;;;;;;0.50;0.50;;;;;;;;;;5053347;28;20234;-69
2021/12/14 05:22:44;;;;;;;0.60;0.60;;;;;;;;;;5043709;28;20240;-69
2021/12/14 05:25:31;;;;;;;0.50;0.50;;;;;;;;;;5053648;28;20664;-69
2021/12/14 05:28:21;;;;;;;0.50;0.50;;;;;;;;;;5051473;28;20677;-69
2021/12/14 05:31:08;;;;;;;0.50;0.50;;;;;;;;;;5050088;28;20235;-69
2021/12/14 05:33:55;;;;;;;0.50;0.50;;;;;;;;;;5038141;28;20283;-69
2021/12/14 05:36:43;;;;;;;0.60;0.60;;;;;;;;;;5048635;28;20208;-68
2021/12/14 05:45:43;;;;;;;0.67;0.67;;;;;;;;;;5054250;28;20201;-69
2021/12/14 05:48:32;;;;;;;0.50;0.50;;;;;;;;;;5051594;28;20315;-69
2021/12/14 05:51:19;;;;;;;0.70;0.70;;;;;;;;;;5035406;28;20283;-69
2021/12/14 05:54:07;;;;;;;0.80;0.60;;;;;;;;;;5048348;28;20237;-69
2021/12/14 05:56:55;;;;;;;0.60;0.60;;;;;;;;;;5041895;28;20304;-69
2021/12/14 05:59:43;;;;;;;0.40;0.37;;;;;;;;;;5038691;28;20288;-69
2021/12/14 06:02:31;;;;;;;0.60;0.60;;;;;;;;;;5048655;28;20627;-69
2021/12/14 06:05:22;;;;;;;0.57;0.57;;;;;;;;;;5051632;28;20732;-68
2021/12/14 06:08:10;;;;;;;0.57;0.57;;;;;;;;;;5053293;28;20340;-68
2021/12/14 06:10:58;;;;;;;0.83;0.40;;;;;;;;;;5048407;28;20266;-68
2021/12/14 06:13:46;;;;;;;0.43;0.43;;;;;;;;;;5052296;28;20240;-69
2021/12/14 06:16:34;;;;;;;0.50;0.50;;;;;;;;;;5063304;28;20278;-69
2021/12/14 06:19:25;;;;;;;0.30;0.30;;;;;;;;;;5053030;28;20355;-68
2021/12/14 06:22:14;;;;;;;0.50;0.50;;;;;;;;;;5050772;28;20339;-69
2021/12/14 06:25:04;;;;;;;0.60;0.60;;;;;;;;;;5039791;28;20228;-68
2021/12/14 06:27:55;;;;;;;0.63;0.63;;;;;;;;;;5047099;28;20339;-69
2021/12/14 06:30:43;;;;;;;0.87;0.60;;;;;;;;;;5036373;28;20299;-70
2021/12/14 06:33:32;;;;;;;0.60;0.60;;;;;;;;;;5050732;28;20221;-68
2021/12/14 06:37:03;;;;;;;0.53;0.53;;;;;;;;;;5047038;28;20291;-68
2021/12/14 06:40:10;;;;;;;0.50;0.50;;;;;;;;;;5048250;28;20548;-68
2021/12/14 06:43:00;;;;;;;0.50;0.50;;;;;;;;;;5051709;28;20232;-69
2021/12/14 06:45:55;;;;;;;0.60;0.60;;;;;;;;;;5051430;28;20216;-69
2021/12/14 06:48:44;;;;;;;0.53;0.53;;;;;;;;;;5051409;28;20299;-69
2021/12/14 06:51:34;;;;;;;0.70;0.70;;;;;;;;;;5067367;28;20295;-69
2021/12/14 06:54:23;;;;;;;0.70;0.70;;;;;;;;;;5050866;28;20574;-69
2021/12/14 06:57:11;;;;;;;0.60;0.60;;;;;;;;;;5038074;28;20684;-69
2021/12/14 06:59:59;;;;;;;0.70;0.70;;;;;;;;;;5047711;28;20474;-69
2021/12/14 07:02:48;;;;;;;0.70;0.70;;;;;;;;;;5046673;28;20343;-69
2021/12/14 07:05:36;;;;;;;0.73;0.73;;;;;;;;;;5049348;28;20232;-69
2021/12/14 07:08:26;;;;;;;0.90;0.90;;;;;;;;;;5047196;28;20751;-69
2021/12/14 07:11:19;;;;;;;0.70;0.70;;;;;;;;;;5047431;28;20732;-69
2021/12/14 07:14:29;;;;;;;0.93;0.93;;;;;;;;;;5047291;28;20283;-69
2021/12/14 07:17:19;;;;;;;1.00;0.90;;;;;;;;;;5050378;28;20220;-69
2021/12/14 07:20:21;;;;;;;0.90;0.90;;;;;;;;;;5050006;28;20204;-69
2021/12/14 07:23:19;;;;;;;0.90;0.90;;;;;;;;;;5041404;28;20570;-68
2021/12/14 07:26:11;;;;;;;0.60;0.60;;;;;;;;;;5040130;28;20264;-69
2021/12/14 07:28:59;;;;;;;0.97;0.97;;;;;;;;;;5048502;28;20232;-69
2021/12/14 07:31:46;;;;;;;1.07;1.03;;;;;;;;;;5046923;28;20221;-68
2021/12/14 07:34:33;;;;;;;0.97;0.90;;;;;;;;;;5050164;28;20288;-69
2021/12/14 07:37:34;;;;;;;0.80;0.80;;;;;;;;;;5047058;28;20211;-69
2021/12/14 07:40:24;;;;;;;0.83;0.83;;;;;;;;;;5049120;28;20212;-69
2021/12/14 07:43:19;;;;;;;1.03;0.90;;;;;;;;;;5051820;28;20209;-69
2021/12/14 07:46:18;;;;;;;0.70;0.70;;;;;;;;;;5048398;28;20211;-69
2021/12/14 07:49:08;;;;;;;1.00;1.00;;;;;;;;;;5049518;28;20234;-69
2021/12/14 07:51:58;;;;;;;0.60;0.60;;;;;;;;;;5047199;28;20220;-69
2021/12/14 07:54:48;;;;;;;0.80;0.80;;;;;;;;;;5045807;28;20230;-69
2021/12/14 07:57:37;;;;;;;0.80;0.80;;;;;;;;;;5047456;28;20212;-69
2021/12/14 08:00:29;;;;;;;0.80;0.80;;;;;;;;;;5048580;28;20244;-69
2021/12/14 08:03:25;;;;;;;0.80;0.80;;;;;;;;;;5046699;28;20258;-72
2021/12/14 08:06:14;;;;;;;0.90;0.90;;;;;;;;;;5045970;28;20227;-69
2021/12/14 08:09:01;;;;;;;1.00;1.00;;;;;;;;;;5067431;28;20665;-70
2021/12/14 08:11:49;;;;;;;1.03;1.03;;;;;;;;;;5035381;28;20219;-69
2021/12/14 08:14:36;;;;;;;1.20;1.20;;;;;;;;;;5036455;28;20562;-69
2021/12/14 08:17:24;;;;;;;1.33;1.23;;;;;;;;;;5031080;28;20249;-69
2021/12/14 08:20:13;;;;;;;0.90;0.90;;;;;;;;;;5048552;28;20669;-70
2021/12/14 08:23:13;;;;;;;1.20;1.20;;;;;;;;;;5047788;28;20287;-69
2021/12/14 08:26:08;;;;;;;2.07;1.30;;;;;;;;;;5049418;28;20269;-69
2021/12/14 08:28:57;;;;;;;1.37;1.30;;;;;;;;;;5044781;28;20306;-69
2021/12/14 08:31:49;;;;;;;1.67;1.43;;;;;;;;;;5044117;28;20218;-68
2021/12/14 08:34:41;;;;;;;1.90;1.53;;;;;;;;;;5048446;28;20217;-69
2021/12/14 08:37:32;;;;;;;1.80;1.70;;;;;;;;;;5047044;28;20277;-68
2021/12/14 08:40:22;;;;;;;1.80;1.70;;;;;;;;;;5046277;28;20324;-66
2021/12/14 08:43:19;;;;;;;2.20;2.00;;;;;;;;;;5046706;28;20246;-67
2021/12/14 08:46:10;;;;;;;2.00;1.90;;;;;;;;;;5048197;28;20228;-67
2021/12/14 08:49:00;;;;;;;2.10;2.00;;;;;;;;;;5057631;28;20206;-67
2021/12/14 08:51:50;;;;;;;2.07;1.97;;;;;;;;;;5048154;28;20211;-68
2021/12/14 08:54:39;;;;;;;2.13;2.03;;;;;;;;;;5049196;28;20209;-68
2021/12/14 08:57:29;;;;;;;2.00;1.90;;;;;;;;;;5059394;28;20266;-68
2021/12/14 09:00:20;;;;;;;2.30;2.10;;;;;;;;;;5061127;28;20201;-68
2021/12/14 09:03:13;;;;;;;2.30;2.10;;;;;;;;;;5044609;28;20206;-68
2021/12/14 09:06:03;;;;;;;2.33;2.20;;;;;;;;;;5048772;28;20273;-67
2021/12/14 09:08:52;;;;;;;2.00;1.90;;;;;;;;;;5039624;28;20210;-67
2021/12/14 09:11:42;;;;;;;2.40;2.20;;;;;;;;;;5046842;28;20664;-68
2021/12/14 09:14:29;;;;;;;2.43;2.23;;;;;;;;;;5047533;28;20632;-68
2021/12/14 09:17:21;;;;;;;2.03;1.87;;;;;;;;;;5048803;28;20696;-68
2021/12/14 09:20:13;;;;;;;2.20;2.10;;;;;;;;;;5048162;28;20222;-68
2021/12/14 09:23:03;;;;;;;2.97;2.13;;;;;;;;;;5048090;28;20239;-68
2021/12/14 09:25:53;;;;;;;2.53;2.27;;;;;;;;;;5045853;28;20234;-67
2021/12/14 09:28:40;;;;;;;2.13;1.93;;;;;;;;;;5047663;28;20841;-67
2021/12/14 09:31:31;;;;;;;1.80;1.70;;;;;;;;;;5043749;28;20288;-67
2021/12/14 09:34:24;;;;;;;1.90;1.80;;;;;;;;;;5058731;28;20254;-68
2021/12/14 09:37:12;;;;;;;2.00;1.90;;;;;;;;;;5050467;28;20215;-67
2021/12/14 09:40:04;;;;;;;2.43;2.20;;;;;;;;;;5034317;28;20201;-68
2021/12/14 09:42:53;;;;;;;2.33;2.07;;;;;;;;;;5047082;28;20272;-67
2021/12/14 09:45:44;;;;;;;2.60;2.10;;;;;;;;;;5046446;28;20229;-67
2021/12/14 09:48:35;;;;;;;1.83;1.73;;;;;;;;;;5042873;28;20559;-67
2021/12/14 09:51:26;;;;;;;1.80;1.70;;;;;;;;;;5057753;28;20213;-67
2021/12/14 09:54:15;;;;;;;1.77;1.67;;;;;;;;;;5049810;28;20257;-67
2021/12/14 09:57:08;;;;;;;2.37;1.80;;;;;;;;;;5032676;28;20214;-67
2021/12/14 10:00:00;;;;;;;1.30;1.30;;;;;;;;;;5057761;28;20292;-68
2021/12/14 10:02:49;;;;;;;1.80;1.70;;;;;;;;;;5052501;28;20248;-67
2021/12/14 10:05:39;;;;;;;2.00;1.63;;;;;;;;;;5040612;28;20412;-67
2021/12/14 10:08:32;;;;;;;2.00;1.60;;;;;;;;;;5050829;28;20236;-67
2021/12/14 10:11:27;;;;;;;2.03;1.73;;;;;;;;;;5047623;28;20217;-68
2021/12/14 10:14:17;;;;;;;1.63;1.53;;;;;;;;;;5033766;28;21447;-67
2021/12/14 10:17:11;;;;;;;1.60;1.50;;;;;;;;;;5049081;28;20212;-67
2021/12/14 10:19:58;;;;;;;1.83;1.60;;;;;;;;;;5049125;28;20759;-67
2021/12/14 10:22:48;;;;;;;1.60;1.50;;;;;;;;;;5042919;28;20583;-68
2021/12/14 10:25:37;;;;;;;2.00;1.33;;;;;;;;;;5048673;28;20226;-68
2021/12/14 10:28:26;;;;;;;1.40;1.30;;;;;;;;;;5049817;28;20204;-67
2021/12/14 10:31:25;;;;;;;1.27;1.10;;;;;;;;;;5034325;28;20247;-67
2021/12/14 10:34:17;;;;;;;1.43;1.33;;;;;;;;;;5050408;28;20219;-67
2021/12/14 10:37:11;;;;;;;1.40;1.30;;;;;;;;;;5050331;28;20217;-67
2021/12/14 10:43:12;;;;;;;1.43;1.07;;;;;;;;;;5061656;28;20271;-68
2021/12/14 10:46:05;;;;;;;1.77;1.53;;;;;;;;;;5052431;28;20575;-68
2021/12/14 10:48:53;;;;;;;1.10;1.00;;;;;;;;;;5036998;28;20297;-67
2021/12/14 10:51:43;;;;;;;1.40;1.30;;;;;;;;;;5049097;28;20209;-67
2021/12/14 10:54:31;;;;;;;1.57;1.37;;;;;;;;;;5046590;28;20296;-67
2021/12/14 10:57:21;;;;;;;1.33;1.23;;;;;;;;;;5035175;28;20281;-67
2021/12/14 11:00:17;;;;;;;1.93;1.20;;;;;;;;;;5055470;28;20315;-67
2021/12/14 11:03:08;;;;;;;2.33;1.20;;;;;;;;;;5043949;28;20673;-68
2021/12/14 11:05:59;;;;;;;1.60;1.13;;;;;;;;;;5049825;28;20996;-67
2021/12/14 11:08:59;;;;;;;1.87;1.30;;;;;;;;;;5048898;28;20258;-67
2021/12/14 11:11:50;;;;;;;1.27;1.13;;;;;;;;;;5046714;28;20703;-67
2021/12/14 11:14:37;;;;;;;1.20;1.10;;;;;;;;;;5046811;28;20737;-68
2021/12/14 11:20:34;;;;;;;1.83;1.40;;;;;;;;;;5045092;28;20204;-67
2021/12/14 11:23:23;;;;;;;1.80;1.33;;;;;;;;;;5039100;28;20665;-68
2021/12/14 11:26:15;;;;;;;1.80;1.63;;;;;;;;;;5046532;28;20344;-67
2021/12/14 11:29:05;;;;;;;1.40;1.30;;;;;;;;;;5044468;28;20289;-67
2021/12/14 11:32:02;;;;;;;1.37;1.27;;;;;;;;;;5048898;28;20284;-67
2021/12/14 11:34:49;;;;;;;1.23;1.13;;;;;;;;;;5049643;28;20326;-67
2021/12/14 11:37:38;;;;;;;1.37;1.10;;;;;;;;;;5046944;28;20209;-68
2021/12/14 11:40:26;;;;;;;1.23;1.13;;;;;;;;;;5049325;28;20629;-67
2021/12/14 11:43:17;;;;;;;1.70;1.30;;;;;;;;;;5047844;28;20327;-67
2021/12/14 11:46:06;;;;;;;1.40;1.30;;;;;;;;;;5046498;28;20294;-68
2021/12/14 11:48:58;;;;;;;2.20;1.40;;;;;;;;;;5050420;28;20217;-68
2021/12/14 11:51:45;;;;;;;1.53;1.37;;;;;;;;;;5047505;28;20212;-67
2021/12/14 11:54:41;;;;;;;2.00;1.50;;;;;;;;;;5045423;28;20214;-67
2021/12/14 11:57:32;;;;;;;2.43;1.67;;;;;;;;;;5032183;28;20657;-67
2021/12/14 12:00:24;;;;;;;2.07;1.30;;;;;;;;;;5049760;28;20289;-67
2021/12/14 12:03:24;;;;;;;1.53;1.27;;;;;;;;;;5033156;28;20621;-67
2021/12/14 12:06:32;;;;;;;1.23;1.10;;;;;;;;;;5049029;28;20241;-67
2021/12/14 12:09:29;;;;;;;2.27;1.53;;;;;;;;;;5034476;28;20267;-67
2021/12/14 12:12:23;;;;;;;1.73;1.20;;;;;;;;;;5044845;28;20214;-67
2021/12/14 12:15:16;;;;;;;2.33;1.63;;;;;;;;;;5036194;28;20255;-68
2021/12/14 12:18:05;;;;;;;1.37;1.20;;;;;;;;;;5038165;28;20261;-67
2021/12/14 12:20:52;;;;;;;2.53;1.50;;;;;;;;;;5043132;28;20273;-67
2021/12/14 12:23:39;;;;;;;2.77;1.67;;;;;;;;;;5037260;28;20218;-67
2021/12/14 12:26:29;;;;;;;2.97;2.37;;;;;;;;;;5046560;28;20314;-67
2021/12/14 12:29:18;;;;;;;3.77;2.90;;;;;;;;;;5048044;28;20214;-67
2021/12/14 12:32:16;;;;;;;6.00;3.23;;;;;;;;;;5034996;28;20213;-71
2021/12/14 12:35:22;;;;;;;4.27;3.50;;;;;;;;;;5055913;28;20213;-69
2021/12/14 12:38:44;;;;;;;3.67;2.90;;;;;;;;;;5046672;28;20204;-69
2021/12/14 12:41:40;;;;;;;5.40;2.97;;;;;;;;;;5017219;28;20213;-69
2021/12/14 12:44:31;;;;;;;3.53;3.07;;;;;;;;;;5031048;28;20217;-68
2021/12/14 12:47:21;;;;;;;4.50;2.90;;;;;;;;;;5043089;28;20226;-68
2021/12/14 12:50:09;;;;;;;3.87;2.40;;;;;;;;;;5045062;28;20711;-69
2021/12/14 12:52:57;;;;;;;3.77;2.70;;;;;;;;;;5048953;28;20215;-69
2021/12/14 12:55:44;;;;;;;5.53;2.43;;;;;;;;;;5047801;28;20297;-69
2021/12/14 12:58:31;;;;;;;3.63;2.10;;;;;;;;;;5046804;28;20307;-68
2021/12/14 13:01:23;;;;;;;4.27;2.20;;;;;;;;;;5039589;28;20203;-69
2021/12/14 13:04:10;;;;;;;3.63;2.10;;;;;;;;;;5046799;28;20311;-69
2021/12/14 13:07:06;;;;;;;2.63;1.97;;;;;;;;;;5044031;28;20319;-68
2021/12/14 13:10:01;;;;;;;1.90;1.80;;;;;;;;;;5043357;28;20217;-69
2021/12/14 13:12:53;;;;;;;2.90;2.00;;;;;;;;;;5044800;28;20583;-69
2021/12/14 13:15:58;;;;;;;2.63;2.10;;;;;;;;;;5046622;28;20297;-69
2021/12/14 13:18:50;;;;;;;2.17;1.90;;;;;;;;;;5045652;28;20241;-69
2021/12/14 13:21:46;;;;;;;2.30;1.73;;;;;;;;;;5044726;28;20322;-69
2021/12/14 13:24:36;;;;;;;3.13;2.00;;;;;;;;;;5044769;28;20238;-69
2021/12/14 13:27:25;;;;;;;2.50;1.90;;;;;;;;;;5043648;28;20375;-69
2021/12/14 13:30:12;;;;;;;3.80;2.00;;;;;;;;;;5041831;28;20218;-69
2021/12/14 13:32:59;;;;;;;2.10;1.90;;;;;;;;;;5042661;28;20617;-69
2021/12/14 13:35:46;;;;;;;2.47;1.73;;;;;;;;;;5047898;28;20200;-68
2021/12/14 13:38:33;;;;;;;2.33;1.87;;;;;;;;;;5049753;28;20266;-69
2021/12/14 13:41:53;;;;;;;2.13;1.93;;;;;;;;;;5046584;28;20676;-69
2021/12/14 13:44:44;;;;;;;3.90;2.20;;;;;;;;;;5048946;28;20698;-68
2021/12/14 13:47:31;;;;;;;2.27;1.63;;;;;;;;;;5049341;28;20266;-69
2021/12/14 13:50:26;;;;;;;2.17;1.87;;;;;;;;;;5046667;28;20213;-69
2021/12/14 13:53:13;;;;;;;1.80;1.70;;;;;;;;;;5046825;28;20759;-69
2021/12/14 13:56:02;;;;;;;2.30;2.00;;;;;;;;;;5043860;28;20297;-69
2021/12/14 13:58:51;;;;;;;3.83;2.27;;;;;;;;;;5044414;28;20276;-69
2021/12/14 14:01:41;;;;;;;2.33;1.60;;;;;;;;;;5052613;28;20253;-69
2021/12/14 14:04:30;;;;;;;2.57;1.93;;;;;;;;;;5047594;28;20319;-69
2021/12/14 14:07:17;;;;;;;3.10;1.90;;;;;;;;;;5049820;28;20271;-68
2021/12/14 14:10:06;;;;;;;1.70;1.60;;;;;;;;;;5044216;28;20685;-69
2021/12/14 14:12:57;;;;;;;2.47;2.23;;;;;;;;;;5046396;28;20214;-68
2021/12/14 14:15:45;;;;;;;2.00;1.80;;;;;;;;;;5038020;28;20272;-68
2021/12/14 14:18:36;;;;;;;2.30;2.10;;;;;;;;;;5049753;28;20225;-68
2021/12/14 14:21:29;;;;;;;2.77;2.00;;;;;;;;;;5035948;28;20318;-69
2021/12/14 14:24:20;;;;;;;1.97;1.77;;;;;;;;;;5045558;28;20244;-68
2021/12/14 14:27:13;;;;;;;3.10;2.00;;;;;;;;;;5056843;28;20316;-69
2021/12/14 14:30:00;;;;;;;1.80;1.57;;;;;;;;;;5046178;28;20292;-69
2021/12/14 14:33:00;;;;;;;2.27;1.80;;;;;;;;;;5039515;28;20216;-68
2021/12/14 14:35:51;;;;;;;2.10;1.90;;;;;;;;;;5051373;28;20224;-69
2021/12/14 14:38:42;;;;;;;2.40;1.90;;;;;;;;;;5048533;28;20249;-69
2021/12/14 14:41:38;;;;;;;3.63;1.90;;;;;;;;;;5049111;28;20288;-69
2021/12/14 14:44:32;;;;;;;2.60;2.03;;;;;;;;;;5052194;28;20260;-69
2021/12/14 14:47:34;;;;;;;2.43;1.60;;;;;;;;;;5048647;28;20352;-69
2021/12/14 14:50:28;;;;;;;1.83;1.73;;;;;;;;;;5051087;28;20303;-68
2021/12/14 14:53:18;;;;;;;1.60;1.50;;;;;;;;;;5053060;28;20233;-68
2021/12/14 14:56:13;;;;;;;2.33;1.70;;;;;;;;;;5042268;28;20555;-69
2021/12/14 14:59:15;;;;;;;1.77;1.60;;;;;;;;;;5050071;28;20218;-68
2021/12/14 15:02:03;;;;;;;1.80;1.30;;;;;;;;;;5050386;28;20203;-68
2021/12/14 15:05:00;;;;;;;1.90;1.60;;;;;;;;;;5056192;28;20259;-69
2021/12/14 15:08:01;;;;;;;1.60;1.50;;;;;;;;;;5056511;28;20313;-68
2021/12/14 15:10:52;;;;;;;1.70;1.30;;;;;;;;;;5045703;28;20753;-69
2021/12/14 15:13:46;;;;;;;1.60;1.40;;;;;;;;;;5048509;28;20201;-69
2021/12/14 15:16:40;;;;;;;1.97;1.53;;;;;;;;;;5049638;28;20229;-69
2021/12/14 15:19:30;;;;;;;1.70;1.53;;;;;;;;;;5051656;28;20295;-69
2021/12/14 15:22:26;;;;;;;1.70;1.50;;;;;;;;;;5048879;28;20254;-69
2021/12/14 15:25:16;;;;;;;2.20;1.57;;;;;;;;;;5045432;28;20230;-69
2021/12/14 15:28:04;;;;;;;1.67;1.37;;;;;;;;;;5041454;28;20222;-69
2021/12/14 15:30:54;;;;;;;1.50;1.33;;;;;;;;;;5041462;28;20554;-68
2021/12/14 15:33:51;;;;;;;2.33;1.50;;;;;;;;;;5044123;28;20674;-69
2021/12/14 15:36:39;;;;;;;3.23;2.07;;;;;;;;;;5037033;28;20651;-69
2021/12/14 15:39:38;;;;;;;1.43;1.33;;;;;;;;;;5052383;28;20573;-69
2021/12/14 15:42:26;;;;;;;1.67;1.57;;;;;;;;;;5046499;28;20298;-69
2021/12/14 15:45:22;;;;;;;1.80;1.50;;;;;;;;;;5048891;28;20247;-69
2021/12/14 15:48:13;;;;;;;1.93;1.20;;;;;;;;;;5046286;28;20299;-69
2021/12/14 15:51:27;;;;;;;1.60;1.50;;;;;;;;;;5044552;28;20673;-69
2021/12/14 15:54:29;;;;;;;1.60;1.50;;;;;;;;;;5031298;28;20757;-69
2021/12/14 15:57:20;;;;;;;1.93;1.73;;;;;;;;;;5048620;28;20208;-69
2021/12/14 16:00:10;;;;;;;1.73;1.57;;;;;;;;;;5046967;28;20273;-69
2021/12/14 16:02:57;;;;;;;1.80;1.70;;;;;;;;;;5049202;28;20239;-68
2021/12/14 16:05:47;;;;;;;2.70;2.00;;;;;;;;;;5049103;28;20236;-73
2021/12/14 16:08:35;;;;;;;2.40;1.93;;;;;;;;;;5046144;28;20209;-68
2021/12/14 16:11:33;;;;;;;1.90;1.80;;;;;;;;;;5047268;28;20293;-68
2021/12/14 16:17:29;;;;;;;2.37;1.90;;;;;;;;;;5047061;28;20209;-69
2021/12/14 16:20:20;;;;;;;1.90;1.80;;;;;;;;;;5044551;28;20256;-69
2021/12/14 16:23:10;;;;;;;2.30;2.10;;;;;;;;;;5047776;28;20713;-69
2021/12/14 16:26:02;;;;;;;2.27;1.70;;;;;;;;;;5046817;28;20209;-69
2021/12/14 16:28:51;;;;;;;1.83;1.73;;;;;;;;;;5042437;28;20201;-69
2021/12/14 16:31:42;;;;;;;1.80;1.60;;;;;;;;;;5046873;28;20259;-69
2021/12/14 16:34:35;;;;;;;2.17;1.80;;;;;;;;;;5043480;28;20226;-69
2021/12/14 16:37:22;;;;;;;2.03;1.83;;;;;;;;;;5047551;28;20214;-68
2021/12/14 16:40:10;;;;;;;2.10;1.90;;;;;;;;;;5047423;28;20217;-69
2021/12/14 16:42:57;;;;;;;2.40;1.90;;;;;;;;;;5045219;28;20247;-69
2021/12/14 16:45:45;;;;;;;2.33;1.70;;;;;;;;;;5042447;28;20314;-69
2021/12/14 16:48:35;;;;;;;1.87;1.50;;;;;;;;;;5048537;28;20311;-69
2021/12/14 16:51:25;;;;;;;2.37;1.70;;;;;;;;;;5046229;28;20290;-69
2021/12/14 16:54:14;;;;;;;1.70;1.60;;;;;;;;;;5037605;28;20677;-69
2021/12/14 16:57:05;;;;;;;1.60;1.50;;;;;;;;;;5047917;28;20235;-69
2021/12/14 16:59:54;;;;;;;2.03;1.77;;;;;;;;;;5037049;28;20252;-69
2021/12/14 17:02:42;;;;;;;1.70;1.60;;;;;;;;;;5048122;28;20682;-69
2021/12/14 17:05:32;;;;;;;2.57;2.00;;;;;;;;;;5041538;28;20226;-69
2021/12/14 17:08:23;;;;;;;1.60;1.50;;;;;;;;;;5045850;28;20225;-69
2021/12/14 17:11:14;;;;;;;2.53;1.70;;;;;;;;;;5039607;28;20602;-68
2021/12/14 17:14:02;;;;;;;1.83;1.67;;;;;;;;;;5053027;28;20239;-69
2021/12/14 17:16:52;;;;;;;1.90;1.73;;;;;;;;;;5048110;28;20665;-68
2021/12/14 17:19:42;;;;;;;2.20;1.57;;;;;;;;;;5051345;28;20223;-68
2021/12/14 17:22:33;;;;;;;1.83;1.73;;;;;;;;;;5044747;28;20240;-68
2021/12/14 17:25:25;;;;;;;2.00;1.80;;;;;;;;;;5047025;28;20580;-69
2021/12/14 17:28:12;;;;;;;1.53;1.43;;;;;;;;;;5051031;28;20282;-70
2021/12/14 17:30:59;;;;;;;2.67;1.90;;;;;;;;;;5049659;28;20621;-69
2021/12/14 17:33:47;;;;;;;2.40;1.67;;;;;;;;;;5050406;28;20294;-69
2021/12/14 17:36:35;;;;;;;2.13;1.90;;;;;;;;;;5050157;28;20280;-69
2021/12/14 17:39:25;;;;;;;2.30;1.90;;;;;;;;;;5049869;28;20245;-69
2021/12/14 17:42:17;;;;;;;2.17;1.70;;;;;;;;;;5044548;28;20210;-68